sensor_id;sensor_type;location;lat;lon;timestamp;P1;durP1;ratioP1;P2;durP2;ratioP2
75785;SDS011;64402;44.708;37.644;2024-01-07T00:02:22;9.60;;;1.40;;
75785;SDS011;64402;44.708;37.644;2024-01-07T00:04:48;14.15;;;2.20;;
75785;SDS011;64402;44.708;37.644;2024-01-07T00:07:15;14.13;;;1.65;;
75785;SDS011;64402;44.708;37.644;2024-01-07T00:09:41;11.50;;;1.80;;
75785;SDS011;64402;44.708;37.644;2024-01-07T00:12:08;13.98;;;2.42;;
75785;SDS011;64402;44.708;37.644;2024-01-07T00:14:34;12.20;;;1.50;;
75785;SDS011;64402;44.708;37.644;2024-01-07T00:17:01;11.70;;;1.25;;
75785;SDS011;64402;44.708;37.644;2024-01-07T00:19:27;9.98;;;1.67;;
75785;SDS011;64402;44.708;37.644;2024-01-07T00:21:57;11.10;;;2.03;;
75785;SDS011;64402;44.708;37.644;2024-01-07T00:24:23;10.27;;;1.58;;
75785;SDS011;64402;44.708;37.644;2024-01-07T00:26:51;9.23;;;1.52;;
75785;SDS011;64402;44.708;37.644;2024-01-07T00:29:18;11.55;;;1.73;;
75785;SDS011;64402;44.708;37.644;2024-01-07T00:31:44;8.60;;;1.75;;
75785;SDS011;64402;44.708;37.644;2024-01-07T00:34:10;14.35;;;3.33;;
75785;SDS011;64402;44.708;37.644;2024-01-07T00:36:36;13.48;;;1.95;;
75785;SDS011;64402;44.708;37.644;2024-01-07T00:39:03;12.68;;;1.80;;
75785;SDS011;64402;44.708;37.644;2024-01-07T00:41:29;10.57;;;1.70;;
75785;SDS011;64402;44.708;37.644;2024-01-07T00:43:58;10.48;;;1.98;;
75785;SDS011;64402;44.708;37.644;2024-01-07T00:46:24;9.05;;;1.75;;
75785;SDS011;64402;44.708;37.644;2024-01-07T00:48:51;15.80;;;1.90;;
75785;SDS011;64402;44.708;37.644;2024-01-07T00:51:17;11.77;;;1.73;;
75785;SDS011;64402;44.708;37.644;2024-01-07T00:53:43;9.07;;;1.75;;
75785;SDS011;64402;44.708;37.644;2024-01-07T00:56:10;11.80;;;1.70;;
75785;SDS011;64402;44.708;37.644;2024-01-07T00:58:36;11.52;;;1.85;;
75785;SDS011;64402;44.708;37.644;2024-01-07T01:01:03;10.70;;;1.70;;
75785;SDS011;64402;44.708;37.644;2024-01-07T01:03:29;10.82;;;1.85;;
75785;SDS011;64402;44.708;37.644;2024-01-07T01:05:55;13.07;;;2.10;;
75785;SDS011;64402;44.708;37.644;2024-01-07T01:08:21;13.02;;;1.80;;
75785;SDS011;64402;44.708;37.644;2024-01-07T01:10:48;11.80;;;1.88;;
75785;SDS011;64402;44.708;37.644;2024-01-07T01:13:15;10.55;;;1.77;;
75785;SDS011;64402;44.708;37.644;2024-01-07T01:15:41;9.35;;;1.65;;
75785;SDS011;64402;44.708;37.644;2024-01-07T01:18:07;10.13;;;1.85;;
75785;SDS011;64402;44.708;37.644;2024-01-07T01:20:33;15.27;;;2.33;;
75785;SDS011;64402;44.708;37.644;2024-01-07T01:22:59;12.65;;;2.03;;
75785;SDS011;64402;44.708;37.644;2024-01-07T01:25:25;12.07;;;2.13;;
75785;SDS011;64402;44.708;37.644;2024-01-07T01:27:52;11.68;;;1.55;;
75785;SDS011;64402;44.708;37.644;2024-01-07T01:30:19;9.23;;;1.83;;
75785;SDS011;64402;44.708;37.644;2024-01-07T01:32:45;11.45;;;1.90;;
75785;SDS011;64402;44.708;37.644;2024-01-07T01:35:12;9.75;;;1.83;;
75785;SDS011;64402;44.708;37.644;2024-01-07T01:37:38;8.15;;;1.80;;
75785;SDS011;64402;44.708;37.644;2024-01-07T01:40:04;11.13;;;1.90;;
75785;SDS011;64402;44.708;37.644;2024-01-07T01:42:31;12.98;;;2.00;;
75785;SDS011;64402;44.708;37.644;2024-01-07T01:44:57;8.70;;;1.67;;
75785;SDS011;64402;44.708;37.644;2024-01-07T01:47:28;11.45;;;1.80;;
75785;SDS011;64402;44.708;37.644;2024-01-07T01:49:55;12.18;;;1.98;;
75785;SDS011;64402;44.708;37.644;2024-01-07T01:52:22;10.57;;;2.08;;
75785;SDS011;64402;44.708;37.644;2024-01-07T01:54:48;11.13;;;1.90;;
75785;SDS011;64402;44.708;37.644;2024-01-07T01:57:15;7.25;;;1.83;;
75785;SDS011;64402;44.708;37.644;2024-01-07T01:59:46;17.65;;;2.30;;
75785;SDS011;64402;44.708;37.644;2024-01-07T02:02:13;14.35;;;2.20;;
75785;SDS011;64402;44.708;37.644;2024-01-07T02:04:39;14.23;;;2.22;;
75785;SDS011;64402;44.708;37.644;2024-01-07T02:07:06;12.02;;;1.88;;
75785;SDS011;64402;44.708;37.644;2024-01-07T02:09:32;7.72;;;1.73;;
75785;SDS011;64402;44.708;37.644;2024-01-07T02:12:04;15.95;;;2.28;;
75785;SDS011;64402;44.708;37.644;2024-01-07T02:14:31;14.90;;;2.30;;
75785;SDS011;64402;44.708;37.644;2024-01-07T02:16:58;11.98;;;2.13;;
75785;SDS011;64402;44.708;37.644;2024-01-07T02:19:24;10.27;;;1.60;;
75785;SDS011;64402;44.708;37.644;2024-01-07T02:21:51;11.02;;;1.90;;
75785;SDS011;64402;44.708;37.644;2024-01-07T02:24:17;11.00;;;1.90;;
75785;SDS011;64402;44.708;37.644;2024-01-07T02:26:44;7.55;;;1.88;;
75785;SDS011;64402;44.708;37.644;2024-01-07T02:29:12;9.38;;;1.70;;
75785;SDS011;64402;44.708;37.644;2024-01-07T02:31:39;13.20;;;1.90;;
75785;SDS011;64402;44.708;37.644;2024-01-07T02:34:05;9.38;;;1.33;;
75785;SDS011;64402;44.708;37.644;2024-01-07T02:36:32;10.32;;;1.70;;
75785;SDS011;64402;44.708;37.644;2024-01-07T02:38:58;10.15;;;1.60;;
75785;SDS011;64402;44.708;37.644;2024-01-07T02:41:24;11.85;;;1.75;;
75785;SDS011;64402;44.708;37.644;2024-01-07T02:43:52;11.93;;;1.88;;
75785;SDS011;64402;44.708;37.644;2024-01-07T02:46:19;13.13;;;1.70;;
75785;SDS011;64402;44.708;37.644;2024-01-07T02:48:46;10.27;;;2.40;;
75785;SDS011;64402;44.708;37.644;2024-01-07T02:51:12;11.32;;;1.73;;
75785;SDS011;64402;44.708;37.644;2024-01-07T02:53:39;12.77;;;1.95;;
75785;SDS011;64402;44.708;37.644;2024-01-07T02:56:05;10.30;;;1.92;;
75785;SDS011;64402;44.708;37.644;2024-01-07T02:58:34;11.30;;;1.63;;
75785;SDS011;64402;44.708;37.644;2024-01-07T03:01:00;12.13;;;1.55;;
75785;SDS011;64402;44.708;37.644;2024-01-07T03:03:27;15.90;;;2.22;;
75785;SDS011;64402;44.708;37.644;2024-01-07T03:05:53;8.20;;;1.60;;
75785;SDS011;64402;44.708;37.644;2024-01-07T03:08:20;12.90;;;2.17;;
75785;SDS011;64402;44.708;37.644;2024-01-07T03:10:46;14.32;;;1.77;;
75785;SDS011;64402;44.708;37.644;2024-01-07T03:13:12;10.93;;;1.88;;
75785;SDS011;64402;44.708;37.644;2024-01-07T03:15:39;11.35;;;1.92;;
75785;SDS011;64402;44.708;37.644;2024-01-07T03:18:05;12.40;;;1.83;;
75785;SDS011;64402;44.708;37.644;2024-01-07T03:20:32;8.18;;;1.70;;
75785;SDS011;64402;44.708;37.644;2024-01-07T03:22:59;11.20;;;2.58;;
75785;SDS011;64402;44.708;37.644;2024-01-07T03:25:27;11.48;;;1.80;;
75785;SDS011;64402;44.708;37.644;2024-01-07T03:27:53;10.95;;;1.63;;
75785;SDS011;64402;44.708;37.644;2024-01-07T03:30:19;10.23;;;1.60;;
75785;SDS011;64402;44.708;37.644;2024-01-07T03:32:45;14.82;;;1.92;;
75785;SDS011;64402;44.708;37.644;2024-01-07T03:35:12;7.45;;;1.33;;
75785;SDS011;64402;44.708;37.644;2024-01-07T03:37:38;10.52;;;1.83;;
75785;SDS011;64402;44.708;37.644;2024-01-07T03:40:08;13.82;;;1.65;;
75785;SDS011;64402;44.708;37.644;2024-01-07T03:42:37;7.05;;;1.35;;
75785;SDS011;64402;44.708;37.644;2024-01-07T03:45:04;13.27;;;1.92;;
75785;SDS011;64402;44.708;37.644;2024-01-07T03:47:30;10.25;;;1.85;;
75785;SDS011;64402;44.708;37.644;2024-01-07T03:49:57;10.13;;;1.95;;
75785;SDS011;64402;44.708;37.644;2024-01-07T03:52:23;12.93;;;2.15;;
75785;SDS011;64402;44.708;37.644;2024-01-07T03:54:49;14.32;;;1.80;;
75785;SDS011;64402;44.708;37.644;2024-01-07T03:57:16;9.85;;;1.55;;
75785;SDS011;64402;44.708;37.644;2024-01-07T03:59:42;11.13;;;2.17;;
75785;SDS011;64402;44.708;37.644;2024-01-07T04:02:08;11.23;;;1.85;;
75785;SDS011;64402;44.708;37.644;2024-01-07T04:04:35;12.45;;;1.98;;
75785;SDS011;64402;44.708;37.644;2024-01-07T04:07:01;9.68;;;1.70;;
75785;SDS011;64402;44.708;37.644;2024-01-07T04:09:27;8.18;;;1.50;;
75785;SDS011;64402;44.708;37.644;2024-01-07T04:11:53;7.13;;;1.50;;
75785;SDS011;64402;44.708;37.644;2024-01-07T04:14:19;9.02;;;1.60;;
75785;SDS011;64402;44.708;37.644;2024-01-07T04:16:46;9.98;;;1.58;;
75785;SDS011;64402;44.708;37.644;2024-01-07T04:19:12;8.75;;;1.33;;
75785;SDS011;64402;44.708;37.644;2024-01-07T04:21:38;11.50;;;1.45;;
75785;SDS011;64402;44.708;37.644;2024-01-07T04:24:05;6.30;;;1.58;;
75785;SDS011;64402;44.708;37.644;2024-01-07T04:26:31;7.88;;;1.70;;
75785;SDS011;64402;44.708;37.644;2024-01-07T04:28:57;10.40;;;1.48;;
75785;SDS011;64402;44.708;37.644;2024-01-07T04:31:24;11.10;;;1.42;;
75785;SDS011;64402;44.708;37.644;2024-01-07T04:33:50;7.13;;;1.45;;
75785;SDS011;64402;44.708;37.644;2024-01-07T04:36:16;12.60;;;1.52;;
75785;SDS011;64402;44.708;37.644;2024-01-07T04:38:43;9.75;;;1.55;;
75785;SDS011;64402;44.708;37.644;2024-01-07T04:41:09;7.70;;;1.55;;
75785;SDS011;64402;44.708;37.644;2024-01-07T04:43:36;12.35;;;1.90;;
75785;SDS011;64402;44.708;37.644;2024-01-07T04:46:02;11.85;;;1.52;;
75785;SDS011;64402;44.708;37.644;2024-01-07T04:48:29;13.52;;;1.58;;
75785;SDS011;64402;44.708;37.644;2024-01-07T04:50:58;11.07;;;1.67;;
75785;SDS011;64402;44.708;37.644;2024-01-07T04:53:25;9.52;;;1.55;;
75785;SDS011;64402;44.708;37.644;2024-01-07T04:55:51;9.35;;;1.30;;
75785;SDS011;64402;44.708;37.644;2024-01-07T04:58:17;8.60;;;1.33;;
75785;SDS011;64402;44.708;37.644;2024-01-07T05:00:44;10.65;;;1.67;;
75785;SDS011;64402;44.708;37.644;2024-01-07T05:03:10;11.23;;;1.40;;
75785;SDS011;64402;44.708;37.644;2024-01-07T05:05:36;7.03;;;1.10;;
75785;SDS011;64402;44.708;37.644;2024-01-07T05:08:04;8.27;;;1.30;;
75785;SDS011;64402;44.708;37.644;2024-01-07T05:10:31;10.50;;;1.33;;
75785;SDS011;64402;44.708;37.644;2024-01-07T05:12:57;9.88;;;1.85;;
75785;SDS011;64402;44.708;37.644;2024-01-07T05:15:24;12.35;;;1.77;;
75785;SDS011;64402;44.708;37.644;2024-01-07T05:17:50;7.32;;;1.40;;
75785;SDS011;64402;44.708;37.644;2024-01-07T05:20:17;10.27;;;1.55;;
75785;SDS011;64402;44.708;37.644;2024-01-07T05:22:44;8.93;;;1.67;;
75785;SDS011;64402;44.708;37.644;2024-01-07T05:25:10;7.70;;;1.30;;
75785;SDS011;64402;44.708;37.644;2024-01-07T05:27:37;8.82;;;1.40;;
75785;SDS011;64402;44.708;37.644;2024-01-07T05:30:04;8.63;;;1.50;;
75785;SDS011;64402;44.708;37.644;2024-01-07T05:32:31;9.75;;;1.23;;
75785;SDS011;64402;44.708;37.644;2024-01-07T05:34:57;11.85;;;1.45;;
75785;SDS011;64402;44.708;37.644;2024-01-07T05:37:23;7.63;;;1.27;;
75785;SDS011;64402;44.708;37.644;2024-01-07T05:39:50;8.25;;;1.35;;
75785;SDS011;64402;44.708;37.644;2024-01-07T05:42:16;10.52;;;1.63;;
75785;SDS011;64402;44.708;37.644;2024-01-07T05:44:42;9.65;;;1.60;;
75785;SDS011;64402;44.708;37.644;2024-01-07T05:47:08;6.65;;;1.50;;
75785;SDS011;64402;44.708;37.644;2024-01-07T05:49:35;8.23;;;1.20;;
75785;SDS011;64402;44.708;37.644;2024-01-07T05:52:01;7.75;;;1.30;;
75785;SDS011;64402;44.708;37.644;2024-01-07T05:54:27;8.55;;;1.35;;
75785;SDS011;64402;44.708;37.644;2024-01-07T05:56:53;10.65;;;1.73;;
75785;SDS011;64402;44.708;37.644;2024-01-07T05:59:20;15.20;;;1.73;;
75785;SDS011;64402;44.708;37.644;2024-01-07T06:01:46;9.32;;;1.52;;
75785;SDS011;64402;44.708;37.644;2024-01-07T06:04:12;7.15;;;1.60;;
75785;SDS011;64402;44.708;37.644;2024-01-07T06:06:38;8.82;;;1.50;;
75785;SDS011;64402;44.708;37.644;2024-01-07T06:09:05;12.35;;;1.70;;
75785;SDS011;64402;44.708;37.644;2024-01-07T06:11:32;7.75;;;1.15;;
75785;SDS011;64402;44.708;37.644;2024-01-07T06:13:58;9.15;;;1.10;;
75785;SDS011;64402;44.708;37.644;2024-01-07T06:16:25;12.35;;;1.50;;
75785;SDS011;64402;44.708;37.644;2024-01-07T06:18:51;9.65;;;1.90;;
75785;SDS011;64402;44.708;37.644;2024-01-07T06:21:17;11.32;;;1.30;;
75785;SDS011;64402;44.708;37.644;2024-01-07T06:23:44;7.65;;;1.05;;
75785;SDS011;64402;44.708;37.644;2024-01-07T06:26:10;7.07;;;1.50;;
75785;SDS011;64402;44.708;37.644;2024-01-07T06:28:36;13.50;;;1.30;;
75785;SDS011;64402;44.708;37.644;2024-01-07T06:31:03;8.38;;;1.25;;
75785;SDS011;64402;44.708;37.644;2024-01-07T06:33:30;6.85;;;1.00;;
75785;SDS011;64402;44.708;37.644;2024-01-07T06:35:57;10.40;;;1.10;;
75785;SDS011;64402;44.708;37.644;2024-01-07T06:38:23;9.90;;;1.58;;
75785;SDS011;64402;44.708;37.644;2024-01-07T06:40:50;6.65;;;1.10;;
75785;SDS011;64402;44.708;37.644;2024-01-07T06:43:16;10.07;;;1.27;;
75785;SDS011;64402;44.708;37.644;2024-01-07T06:45:42;7.65;;;1.30;;
75785;SDS011;64402;44.708;37.644;2024-01-07T06:48:09;12.30;;;1.20;;
75785;SDS011;64402;44.708;37.644;2024-01-07T06:50:35;6.10;;;1.10;;
75785;SDS011;64402;44.708;37.644;2024-01-07T06:53:02;10.00;;;1.67;;
75785;SDS011;64402;44.708;37.644;2024-01-07T06:55:28;6.65;;;1.20;;
75785;SDS011;64402;44.708;37.644;2024-01-07T06:57:54;5.57;;;0.98;;
75785;SDS011;64402;44.708;37.644;2024-01-07T07:00:20;6.38;;;1.13;;
75785;SDS011;64402;44.708;37.644;2024-01-07T07:02:47;5.22;;;0.90;;
75785;SDS011;64402;44.708;37.644;2024-01-07T07:05:13;7.53;;;1.40;;
75785;SDS011;64402;44.708;37.644;2024-01-07T07:07:39;4.97;;;1.00;;
75785;SDS011;64402;44.708;37.644;2024-01-07T07:10:06;9.60;;;1.20;;
75785;SDS011;64402;44.708;37.644;2024-01-07T07:12:32;7.35;;;1.13;;
75785;SDS011;64402;44.708;37.644;2024-01-07T07:14:58;7.68;;;1.10;;
75785;SDS011;64402;44.708;37.644;2024-01-07T07:17:25;6.43;;;1.02;;
75785;SDS011;64402;44.708;37.644;2024-01-07T07:19:51;10.43;;;1.23;;
75785;SDS011;64402;44.708;37.644;2024-01-07T07:22:17;5.57;;;0.95;;
75785;SDS011;64402;44.708;37.644;2024-01-07T07:24:43;8.38;;;1.10;;
75785;SDS011;64402;44.708;37.644;2024-01-07T07:27:10;6.97;;;1.13;;
75785;SDS011;64402;44.708;37.644;2024-01-07T07:29:36;6.72;;;1.38;;
75785;SDS011;64402;44.708;37.644;2024-01-07T07:32:03;8.60;;;1.17;;
75785;SDS011;64402;44.708;37.644;2024-01-07T07:34:29;8.52;;;1.05;;
75785;SDS011;64402;44.708;37.644;2024-01-07T07:36:56;9.60;;;1.25;;
75785;SDS011;64402;44.708;37.644;2024-01-07T07:39:22;6.13;;;1.10;;
75785;SDS011;64402;44.708;37.644;2024-01-07T07:41:48;5.95;;;1.02;;
75785;SDS011;64402;44.708;37.644;2024-01-07T07:44:15;3.40;;;0.75;;
75785;SDS011;64402;44.708;37.644;2024-01-07T07:46:41;7.53;;;1.23;;
75785;SDS011;64402;44.708;37.644;2024-01-07T07:49:07;10.48;;;0.85;;
75785;SDS011;64402;44.708;37.644;2024-01-07T07:51:34;7.47;;;1.00;;
75785;SDS011;64402;44.708;37.644;2024-01-07T07:54:00;5.97;;;1.40;;
75785;SDS011;64402;44.708;37.644;2024-01-07T07:56:26;7.00;;;1.02;;
75785;SDS011;64402;44.708;37.644;2024-01-07T07:58:53;8.00;;;1.20;;
75785;SDS011;64402;44.708;37.644;2024-01-07T08:01:19;7.00;;;0.90;;
75785;SDS011;64402;44.708;37.644;2024-01-07T08:03:46;5.90;;;0.95;;
75785;SDS011;64402;44.708;37.644;2024-01-07T08:06:12;6.60;;;1.08;;
75785;SDS011;64402;44.708;37.644;2024-01-07T08:08:38;5.72;;;1.00;;
75785;SDS011;64402;44.708;37.644;2024-01-07T08:11:05;6.50;;;0.90;;
75785;SDS011;64402;44.708;37.644;2024-01-07T08:13:37;7.57;;;0.90;;
75785;SDS011;64402;44.708;37.644;2024-01-07T08:16:04;7.75;;;0.80;;
75785;SDS011;64402;44.708;37.644;2024-01-07T08:20:57;4.68;;;0.85;;
75785;SDS011;64402;44.708;37.644;2024-01-07T08:23:24;6.75;;;0.80;;
75785;SDS011;64402;44.708;37.644;2024-01-07T08:25:51;5.25;;;1.13;;
75785;SDS011;64402;44.708;37.644;2024-01-07T08:28:17;4.90;;;0.98;;
75785;SDS011;64402;44.708;37.644;2024-01-07T08:30:44;7.20;;;0.93;;
75785;SDS011;64402;44.708;37.644;2024-01-07T08:33:10;8.52;;;1.02;;
75785;SDS011;64402;44.708;37.644;2024-01-07T08:35:37;8.55;;;0.85;;
75785;SDS011;64402;44.708;37.644;2024-01-07T08:38:03;4.82;;;0.88;;
75785;SDS011;64402;44.708;37.644;2024-01-07T08:40:30;5.63;;;0.98;;
75785;SDS011;64402;44.708;37.644;2024-01-07T08:42:57;8.00;;;0.88;;
75785;SDS011;64402;44.708;37.644;2024-01-07T08:45:23;5.38;;;0.93;;
75785;SDS011;64402;44.708;37.644;2024-01-07T08:47:49;5.75;;;1.00;;
75785;SDS011;64402;44.708;37.644;2024-01-07T08:50:16;6.43;;;1.10;;
75785;SDS011;64402;44.708;37.644;2024-01-07T08:52:42;7.65;;;1.17;;
75785;SDS011;64402;44.708;37.644;2024-01-07T08:55:08;6.00;;;0.98;;
75785;SDS011;64402;44.708;37.644;2024-01-07T08:57:36;5.30;;;0.90;;
75785;SDS011;64402;44.708;37.644;2024-01-07T09:00:04;5.55;;;0.88;;
75785;SDS011;64402;44.708;37.644;2024-01-07T09:02:33;4.00;;;0.98;;
75785;SDS011;64402;44.708;37.644;2024-01-07T09:04:59;8.02;;;1.17;;
75785;SDS011;64402;44.708;37.644;2024-01-07T09:07:26;7.55;;;1.20;;
75785;SDS011;64402;44.708;37.644;2024-01-07T09:09:55;6.30;;;0.90;;
75785;SDS011;64402;44.708;37.644;2024-01-07T09:12:25;5.65;;;0.80;;
75785;SDS011;64402;44.708;37.644;2024-01-07T09:14:52;7.47;;;1.02;;
75785;SDS011;64402;44.708;37.644;2024-01-07T09:17:19;7.00;;;0.95;;
75785;SDS011;64402;44.708;37.644;2024-01-07T09:19:45;12.63;;;1.10;;
75785;SDS011;64402;44.708;37.644;2024-01-07T09:22:11;4.00;;;0.90;;
75785;SDS011;64402;44.708;37.644;2024-01-07T09:24:38;5.13;;;0.88;;
75785;SDS011;64402;44.708;37.644;2024-01-07T09:27:04;5.20;;;0.82;;
75785;SDS011;64402;44.708;37.644;2024-01-07T09:29:30;6.80;;;0.98;;
75785;SDS011;64402;44.708;37.644;2024-01-07T09:31:58;5.45;;;1.00;;
75785;SDS011;64402;44.708;37.644;2024-01-07T09:34:25;5.25;;;0.90;;
75785;SDS011;64402;44.708;37.644;2024-01-07T09:36:51;8.07;;;1.20;;
75785;SDS011;64402;44.708;37.644;2024-01-07T09:39:18;4.40;;;0.77;;
75785;SDS011;64402;44.708;37.644;2024-01-07T09:41:45;6.07;;;1.00;;
75785;SDS011;64402;44.708;37.644;2024-01-07T09:44:11;5.57;;;1.00;;
75785;SDS011;64402;44.708;37.644;2024-01-07T09:46:38;6.28;;;1.00;;
75785;SDS011;64402;44.708;37.644;2024-01-07T09:49:07;6.65;;;1.00;;
75785;SDS011;64402;44.708;37.644;2024-01-07T09:51:35;5.78;;;1.00;;
75785;SDS011;64402;44.708;37.644;2024-01-07T09:54:03;6.38;;;0.90;;
75785;SDS011;64402;44.708;37.644;2024-01-07T09:59:08;6.20;;;0.90;;
75785;SDS011;64402;44.708;37.644;2024-01-07T10:01:35;5.57;;;1.65;;
75785;SDS011;64402;44.708;37.644;2024-01-07T10:04:03;10.00;;;1.23;;
75785;SDS011;64402;44.708;37.644;2024-01-07T10:06:30;7.55;;;1.02;;
75785;SDS011;64402;44.708;37.644;2024-01-07T10:08:58;5.60;;;1.00;;
75785;SDS011;64402;44.708;37.644;2024-01-07T10:11:25;6.85;;;1.20;;
75785;SDS011;64402;44.708;37.644;2024-01-07T10:13:51;6.55;;;0.80;;
75785;SDS011;64402;44.708;37.644;2024-01-07T10:16:19;3.55;;;0.90;;
75785;SDS011;64402;44.708;37.644;2024-01-07T10:18:46;5.00;;;0.93;;
75785;SDS011;64402;44.708;37.644;2024-01-07T10:21:13;5.57;;;1.05;;
75785;SDS011;64402;44.708;37.644;2024-01-07T10:23:39;6.97;;;1.10;;
75785;SDS011;64402;44.708;37.644;2024-01-07T10:28:33;4.90;;;0.70;;
75785;SDS011;64402;44.708;37.644;2024-01-07T10:31:00;8.90;;;1.13;;
75785;SDS011;64402;44.708;37.644;2024-01-07T10:33:33;4.53;;;1.02;;
75785;SDS011;64402;44.708;37.644;2024-01-07T10:36:05;5.68;;;1.17;;
75785;SDS011;64402;44.708;37.644;2024-01-07T10:38:32;6.65;;;1.10;;
75785;SDS011;64402;44.708;37.644;2024-01-07T10:41:02;6.82;;;0.98;;
75785;SDS011;64402;44.708;37.644;2024-01-07T10:43:32;11.30;;;1.50;;
75785;SDS011;64402;44.708;37.644;2024-01-07T10:46:02;5.50;;;1.00;;
75785;SDS011;64402;44.708;37.644;2024-01-07T10:48:30;10.32;;;1.65;;
75785;SDS011;64402;44.708;37.644;2024-01-07T10:51:00;4.95;;;1.40;;
75785;SDS011;64402;44.708;37.644;2024-01-07T10:53:30;7.55;;;1.10;;
75785;SDS011;64402;44.708;37.644;2024-01-07T10:56:04;7.05;;;0.90;;
75785;SDS011;64402;44.708;37.644;2024-01-07T10:58:33;7.55;;;1.38;;
75785;SDS011;64402;44.708;37.644;2024-01-07T11:01:02;7.45;;;1.15;;
75785;SDS011;64402;44.708;37.644;2024-01-07T11:06:24;5.95;;;1.33;;
75785;SDS011;64402;44.708;37.644;2024-01-07T11:09:14;6.28;;;1.15;;
75785;SDS011;64402;44.708;37.644;2024-01-07T11:12:04;6.18;;;1.02;;
75785;SDS011;64402;44.708;37.644;2024-01-07T11:14:35;6.10;;;1.02;;
75785;SDS011;64402;44.708;37.644;2024-01-07T11:17:06;5.15;;;1.13;;
75785;SDS011;64402;44.708;37.644;2024-01-07T11:19:32;8.85;;;1.30;;
75785;SDS011;64402;44.708;37.644;2024-01-07T11:25:01;4.43;;;0.90;;
75785;SDS011;64402;44.708;37.644;2024-01-07T11:27:29;8.60;;;1.27;;
75785;SDS011;64402;44.708;37.644;2024-01-07T11:30:07;8.30;;;1.10;;
75785;SDS011;64402;44.708;37.644;2024-01-07T11:32:45;7.45;;;1.40;;
75785;SDS011;64402;44.708;37.644;2024-01-07T11:35:14;4.97;;;0.98;;
75785;SDS011;64402;44.708;37.644;2024-01-07T11:37:41;5.90;;;1.05;;
75785;SDS011;64402;44.708;37.644;2024-01-07T11:40:08;6.10;;;1.25;;
75785;SDS011;64402;44.708;37.644;2024-01-07T11:42:34;7.88;;;1.30;;
75785;SDS011;64402;44.708;37.644;2024-01-07T11:45:00;6.55;;;1.10;;
75785;SDS011;64402;44.708;37.644;2024-01-07T11:52:20;8.02;;;1.20;;
75785;SDS011;64402;44.708;37.644;2024-01-07T11:54:46;5.97;;;1.10;;
75785;SDS011;64402;44.708;37.644;2024-01-07T11:57:13;8.15;;;1.27;;
75785;SDS011;64402;44.708;37.644;2024-01-07T11:59:40;7.47;;;1.27;;
75785;SDS011;64402;44.708;37.644;2024-01-07T12:02:07;9.13;;;1.25;;
75785;SDS011;64402;44.708;37.644;2024-01-07T12:04:33;5.55;;;1.20;;
75785;SDS011;64402;44.708;37.644;2024-01-07T12:06:59;8.02;;;1.25;;
75785;SDS011;64402;44.708;37.644;2024-01-07T12:09:27;8.57;;;1.23;;
75785;SDS011;64402;44.708;37.644;2024-01-07T12:11:53;4.45;;;0.95;;
75785;SDS011;64402;44.708;37.644;2024-01-07T12:14:21;5.13;;;0.90;;
75785;SDS011;64402;44.708;37.644;2024-01-07T12:16:48;6.78;;;1.20;;
75785;SDS011;64402;44.708;37.644;2024-01-07T12:19:14;6.20;;;1.63;;
75785;SDS011;64402;44.708;37.644;2024-01-07T12:21:40;5.30;;;1.15;;
75785;SDS011;64402;44.708;37.644;2024-01-07T12:24:07;7.40;;;1.45;;
75785;SDS011;64402;44.708;37.644;2024-01-07T12:26:33;8.07;;;1.45;;
75785;SDS011;64402;44.708;37.644;2024-01-07T12:28:59;8.63;;;1.70;;
75785;SDS011;64402;44.708;37.644;2024-01-07T12:31:33;6.32;;;1.33;;
75785;SDS011;64402;44.708;37.644;2024-01-07T12:34:00;9.15;;;1.65;;
75785;SDS011;64402;44.708;37.644;2024-01-07T12:36:31;7.97;;;1.25;;
75785;SDS011;64402;44.708;37.644;2024-01-07T12:38:57;13.70;;;2.28;;
75785;SDS011;64402;44.708;37.644;2024-01-07T12:41:24;9.13;;;1.40;;
75785;SDS011;64402;44.708;37.644;2024-01-07T12:43:51;7.03;;;1.50;;
75785;SDS011;64402;44.708;37.644;2024-01-07T12:46:17;10.10;;;1.45;;
75785;SDS011;64402;44.708;37.644;2024-01-07T12:48:43;7.85;;;1.30;;
75785;SDS011;64402;44.708;37.644;2024-01-07T12:51:10;6.85;;;1.17;;
75785;SDS011;64402;44.708;37.644;2024-01-07T12:53:36;9.48;;;2.80;;
75785;SDS011;64402;44.708;37.644;2024-01-07T12:56:03;8.82;;;1.40;;
75785;SDS011;64402;44.708;37.644;2024-01-07T12:58:29;8.43;;;1.25;;
75785;SDS011;64402;44.708;37.644;2024-01-07T13:00:56;13.20;;;2.30;;
75785;SDS011;64402;44.708;37.644;2024-01-07T13:03:23;7.75;;;1.25;;
75785;SDS011;64402;44.708;37.644;2024-01-07T13:05:50;5.63;;;1.23;;
75785;SDS011;64402;44.708;37.644;2024-01-07T13:08:17;8.02;;;1.20;;
75785;SDS011;64402;44.708;37.644;2024-01-07T13:10:51;7.47;;;1.15;;
75785;SDS011;64402;44.708;37.644;2024-01-07T13:13:19;8.02;;;1.35;;
75785;SDS011;64402;44.708;37.644;2024-01-07T13:15:46;10.23;;;1.40;;
75785;SDS011;64402;44.708;37.644;2024-01-07T13:18:13;10.50;;;1.40;;
75785;SDS011;64402;44.708;37.644;2024-01-07T13:20:39;10.63;;;1.35;;
75785;SDS011;64402;44.708;37.644;2024-01-07T13:23:05;7.88;;;2.00;;
75785;SDS011;64402;44.708;37.644;2024-01-07T13:25:32;9.30;;;1.65;;
75785;SDS011;64402;44.708;37.644;2024-01-07T13:27:58;7.35;;;1.60;;
75785;SDS011;64402;44.708;37.644;2024-01-07T13:30:25;7.90;;;1.42;;
75785;SDS011;64402;44.708;37.644;2024-01-07T13:32:52;9.27;;;1.10;;
75785;SDS011;64402;44.708;37.644;2024-01-07T13:35:22;8.70;;;2.05;;
75785;SDS011;64402;44.708;37.644;2024-01-07T13:37:49;8.60;;;2.20;;
75785;SDS011;64402;44.708;37.644;2024-01-07T13:40:17;10.05;;;2.17;;
75785;SDS011;64402;44.708;37.644;2024-01-07T13:42:44;11.63;;;2.35;;
75785;SDS011;64402;44.708;37.644;2024-01-07T13:45:11;11.70;;;1.60;;
75785;SDS011;64402;44.708;37.644;2024-01-07T13:47:39;9.30;;;1.63;;
75785;SDS011;64402;44.708;37.644;2024-01-07T13:50:06;9.80;;;1.48;;
75785;SDS011;64402;44.708;37.644;2024-01-07T13:52:35;10.10;;;1.50;;
75785;SDS011;64402;44.708;37.644;2024-01-07T13:55:02;11.57;;;2.10;;
75785;SDS011;64402;44.708;37.644;2024-01-07T13:57:29;10.15;;;1.38;;
75785;SDS011;64402;44.708;37.644;2024-01-07T13:59:56;10.52;;;1.38;;
75785;SDS011;64402;44.708;37.644;2024-01-07T14:02:23;12.38;;;1.90;;
75785;SDS011;64402;44.708;37.644;2024-01-07T14:04:50;15.80;;;2.78;;
75785;SDS011;64402;44.708;37.644;2024-01-07T14:07:17;13.98;;;2.60;;
75785;SDS011;64402;44.708;37.644;2024-01-07T14:09:44;11.80;;;1.98;;
75785;SDS011;64402;44.708;37.644;2024-01-07T14:12:11;10.80;;;1.73;;
75785;SDS011;64402;44.708;37.644;2024-01-07T14:14:39;12.98;;;2.15;;
75785;SDS011;64402;44.708;37.644;2024-01-07T14:17:05;12.30;;;1.90;;
75785;SDS011;64402;44.708;37.644;2024-01-07T14:19:33;13.73;;;1.60;;
75785;SDS011;64402;44.708;37.644;2024-01-07T14:21:59;11.63;;;1.50;;
75785;SDS011;64402;44.708;37.644;2024-01-07T14:24:26;12.40;;;2.65;;
75785;SDS011;64402;44.708;37.644;2024-01-07T14:26:53;12.95;;;2.00;;
75785;SDS011;64402;44.708;37.644;2024-01-07T14:29:19;13.23;;;2.13;;
75785;SDS011;64402;44.708;37.644;2024-01-07T14:31:47;9.52;;;1.85;;
75785;SDS011;64402;44.708;37.644;2024-01-07T14:34:13;9.98;;;2.00;;
75785;SDS011;64402;44.708;37.644;2024-01-07T14:36:40;15.00;;;2.47;;
75785;SDS011;64402;44.708;37.644;2024-01-07T14:39:09;10.02;;;1.63;;
75785;SDS011;64402;44.708;37.644;2024-01-07T14:41:36;13.77;;;1.95;;
75785;SDS011;64402;44.708;37.644;2024-01-07T14:44:02;16.85;;;3.13;;
75785;SDS011;64402;44.708;37.644;2024-01-07T14:46:29;12.07;;;2.20;;